createdAt,value
2022-11-05T00:01:49.131Z,12.77
2022-11-05T00:04:35.533Z,13.33
2022-11-05T00:07:25.008Z,13.00
2022-11-05T00:09:58.112Z,13.43
2022-11-05T00:12:43.972Z,13.57
2022-11-05T00:15:29.830Z,12.50
2022-11-05T00:17:57.424Z,11.47
2022-11-05T00:20:24.959Z,11.90
2022-11-05T00:23:10.754Z,12.30
2022-11-05T00:25:38.109Z,11.70
2022-11-05T00:28:05.634Z,10.70
2022-11-05T00:30:33.986Z,9.60
2022-11-05T00:33:01.532Z,10.43
2022-11-05T00:35:29.066Z,12.82
2022-11-05T00:37:56.682Z,10.43
2022-11-05T00:40:24.210Z,10.20
2022-11-05T00:43:10.062Z,8.77
2022-11-05T00:45:37.300Z,10.37
2022-11-05T00:48:23.681Z,9.37
2022-11-05T00:50:51.228Z,9.30
2022-11-05T00:53:18.739Z,10.17
2022-11-05T00:55:47.524Z,10.10
2022-11-05T00:58:15.055Z,9.70
2022-11-05T01:00:46.271Z,10.27
2022-11-05T01:03:14.318Z,9.60
2022-11-05T01:05:41.499Z,9.33
2022-11-05T01:08:09.041Z,9.93
2022-11-05T01:10:42.355Z,9.33
2022-11-05T01:13:12.872Z,9.50
2022-11-05T01:15:37.425Z,9.87
2022-11-05T01:18:05.000Z,10.37
2022-11-05T01:20:32.547Z,9.03
2022-11-05T01:23:00.110Z,10.00
2022-11-05T01:25:27.654Z,10.00
2022-11-05T01:27:55.190Z,9.40
2022-11-05T01:30:23.506Z,9.60
2022-11-05T01:32:51.078Z,9.57
2022-11-05T01:35:18.623Z,9.23
2022-11-05T01:37:46.174Z,9.30
2022-11-05T01:40:13.705Z,9.60
2022-11-05T01:42:42.000Z,9.50
2022-11-05T01:45:12.455Z,8.73
2022-11-05T01:47:48.804Z,8.80
2022-11-05T01:50:34.612Z,9.63
2022-11-05T01:53:29.341Z,9.27
2022-11-05T01:56:09.422Z,11.80
2022-11-05T01:58:36.970Z,11.73
2022-11-05T02:01:05.274Z,10.65
2022-11-05T02:03:32.797Z,8.40
2022-11-05T02:06:01.129Z,8.10
2022-11-05T02:08:34.758Z,8.63
2022-11-05T02:11:02.312Z,8.10
2022-11-05T02:13:29.886Z,8.43
2022-11-05T02:16:03.773Z,10.55
2022-11-05T02:18:33.906Z,9.30
2022-11-05T02:21:10.329Z,10.75
2022-11-05T02:23:44.215Z,8.60
2022-11-05T02:26:38.985Z,9.03
2022-11-05T02:29:13.328Z,8.47
2022-11-05T02:31:52.341Z,8.63
2022-11-05T02:34:26.348Z,8.80
2022-11-05T02:37:00.950Z,8.83
2022-11-05T02:39:37.114Z,7.63
2022-11-05T02:42:10.339Z,8.73
2022-11-05T02:44:40.818Z,10.60
2022-11-05T02:47:18.005Z,9.10
2022-11-05T02:49:54.020Z,8.77
2022-11-05T02:52:48.638Z,9.20
2022-11-05T02:55:28.229Z,8.67
2022-11-05T02:57:56.818Z,8.40
2022-11-05T03:00:52.634Z,8.30
2022-11-05T03:03:20.177Z,8.70
2022-11-05T03:05:47.703Z,11.15
2022-11-05T03:08:15.229Z,11.90
2022-11-05T03:10:42.824Z,9.03
2022-11-05T03:13:13.424Z,8.73
2022-11-05T03:15:58.876Z,7.80
2022-11-05T03:18:36.110Z,8.40
2022-11-05T03:21:12.357Z,7.43
2022-11-05T03:23:46.047Z,8.07
2022-11-05T03:26:13.543Z,8.87
2022-11-05T03:28:41.124Z,9.63
2022-11-05T03:31:08.664Z,8.77
2022-11-05T03:33:36.190Z,8.53
2022-11-05T03:36:04.108Z,9.03
2022-11-05T03:38:31.651Z,8.47
2022-11-05T03:40:59.253Z,8.77
2022-11-05T03:43:26.767Z,8.63
2022-11-05T03:45:57.041Z,8.77
2022-11-05T03:48:27.852Z,8.77
2022-11-05T03:51:03.977Z,8.00
2022-11-05T03:53:31.508Z,7.93
2022-11-05T03:56:11.377Z,8.63
2022-11-05T03:58:38.912Z,8.17
2022-11-05T04:01:07.335Z,10.35
2022-11-05T04:03:34.832Z,8.57
2022-11-05T04:06:23.692Z,10.10
2022-11-05T04:09:10.413Z,9.93
2022-11-05T04:11:56.115Z,8.70
2022-11-05T04:14:23.649Z,8.23
2022-11-05T04:17:07.217Z,8.70
2022-11-05T04:19:53.036Z,8.30
2022-11-05T04:22:38.741Z,8.30
2022-11-05T04:25:06.296Z,10.80
2022-11-05T04:27:34.587Z,9.37
2022-11-05T04:30:21.224Z,8.27
2022-11-05T04:33:09.947Z,8.40
2022-11-05T04:35:39.636Z,7.77
2022-11-05T04:38:13.263Z,8.83
2022-11-05T04:40:40.788Z,11.27
2022-11-05T04:43:14.731Z,10.93
2022-11-05T04:45:35.888Z,11.23
2022-11-05T04:48:03.421Z,8.73
2022-11-05T04:50:31.018Z,8.23
2022-11-05T04:52:58.537Z,9.10
2022-11-05T04:55:26.071Z,8.10
2022-11-05T04:57:55.538Z,8.97
2022-11-05T05:00:23.077Z,8.63
2022-11-05T05:02:50.596Z,12.30
2022-11-05T05:05:18.150Z,8.87
2022-11-05T05:07:46.455Z,9.10
2022-11-05T05:10:13.993Z,9.23
2022-11-05T05:12:42.420Z,9.67
2022-11-05T05:15:09.949Z,8.80
2022-11-05T05:17:37.466Z,12.23
2022-11-05T05:20:23.789Z,10.43
2022-11-05T05:22:52.071Z,8.57
2022-11-05T05:25:19.614Z,7.63
2022-11-05T05:27:47.953Z,8.77
2022-11-05T05:30:15.482Z,8.43
2022-11-05T05:32:43.005Z,9.37
2022-11-05T05:35:11.356Z,10.00
2022-11-05T05:37:38.930Z,7.73
2022-11-05T05:40:06.481Z,7.77
2022-11-05T05:42:38.757Z,7.83
2022-11-05T05:45:01.561Z,10.30
2022-11-05T05:47:29.080Z,11.70
2022-11-05T05:49:57.413Z,8.73
2022-11-05T05:52:24.949Z,9.07
2022-11-05T05:54:52.486Z,11.35
2022-11-05T05:57:20.812Z,9.03
2022-11-05T05:59:48.345Z,8.53
2022-11-05T06:02:16.067Z,7.53
2022-11-05T06:04:43.449Z,8.50
2022-11-05T06:07:10.980Z,7.53
2022-11-05T06:09:39.281Z,7.90
2022-11-05T06:12:06.854Z,8.27
2022-11-05T06:14:34.478Z,8.73
2022-11-05T06:17:02.778Z,7.83
2022-11-05T06:19:30.961Z,8.33
2022-11-05T06:21:58.486Z,8.40
2022-11-05T06:24:26.792Z,8.50
2022-11-05T06:26:54.366Z,8.60
2022-11-05T06:29:21.899Z,11.03
2022-11-05T06:31:49.435Z,13.07
2022-11-05T06:34:17.774Z,12.20
2022-11-05T06:36:45.328Z,10.27
2022-11-05T06:39:12.871Z,8.93
2022-11-05T06:42:04.033Z,9.70
2022-11-05T06:44:07.976Z,9.70
2022-11-05T06:46:35.513Z,9.27
2022-11-05T06:49:03.866Z,8.53
2022-11-05T06:51:31.381Z,8.57
2022-11-05T06:53:58.919Z,8.67
2022-11-05T06:56:26.497Z,8.03
2022-11-05T06:58:54.031Z,11.00
2022-11-05T07:01:22.418Z,10.93
2022-11-05T07:03:49.898Z,10.37
2022-11-05T07:06:17.542Z,9.50
2022-11-05T07:08:45.078Z,10.13
2022-11-05T07:11:13.441Z,9.63
2022-11-05T07:13:40.974Z,10.93
2022-11-05T07:16:08.507Z,14.15
2022-11-05T07:18:36.089Z,13.10
2022-11-05T07:21:03.633Z,11.43
2022-11-05T07:23:31.158Z,9.70
2022-11-05T07:25:59.512Z,10.20
2022-11-05T07:28:27.031Z,10.10
2022-11-05T07:30:54.556Z,11.37
2022-11-05T07:33:22.889Z,10.57
2022-11-05T07:35:50.447Z,11.07
2022-11-05T07:38:17.965Z,12.53
2022-11-05T07:40:45.812Z,10.87
2022-11-05T07:43:14.580Z,12.40
2022-11-05T07:45:41.631Z,12.97
2022-11-05T07:48:09.213Z,11.33
2022-11-05T07:50:36.753Z,9.63
2022-11-05T07:53:04.292Z,8.57
2022-11-05T07:55:32.095Z,8.60
2022-11-05T07:57:59.759Z,8.77
2022-11-05T08:00:27.343Z,8.60
2022-11-05T08:03:02.133Z,9.17
2022-11-05T08:05:25.337Z,8.40
2022-11-05T08:07:55.525Z,11.48
2022-11-05T08:10:26.010Z,9.40
2022-11-05T08:12:53.498Z,9.23
2022-11-05T08:15:21.800Z,8.70
2022-11-05T08:17:49.414Z,8.47
2022-11-05T08:20:16.939Z,8.83
2022-11-05T08:22:44.471Z,11.52
2022-11-05T08:25:12.054Z,9.63
2022-11-05T08:27:39.600Z,8.93
2022-11-05T08:30:07.270Z,8.90
2022-11-05T08:32:34.844Z,8.47
2022-11-05T08:35:02.399Z,8.47
2022-11-05T08:37:29.934Z,7.43
2022-11-05T08:39:57.827Z,7.80
2022-11-05T08:42:25.363Z,8.27
2022-11-05T08:44:52.877Z,8.63
2022-11-05T08:47:20.993Z,7.53
2022-11-05T08:49:48.522Z,6.77
2022-11-05T08:52:16.838Z,8.03
2022-11-05T08:54:44.405Z,7.03
2022-11-05T08:57:11.950Z,7.30
2022-11-05T08:59:39.487Z,7.37
2022-11-05T09:02:07.157Z,6.97
2022-11-05T09:04:34.609Z,7.17
2022-11-05T09:07:02.145Z,6.40
2022-11-05T09:09:29.728Z,6.50
2022-11-05T09:12:11.579Z,6.13
2022-11-05T09:14:24.795Z,5.97
2022-11-05T09:16:52.379Z,7.28
2022-11-05T09:19:19.910Z,6.90
2022-11-05T09:21:47.439Z,7.10
2022-11-05T09:24:15.350Z,6.27
2022-11-05T09:26:42.874Z,6.00
2022-11-05T09:29:14.240Z,8.38
2022-11-05T09:31:37.999Z,6.90
2022-11-05T09:34:05.533Z,6.43
2022-11-05T09:36:33.076Z,5.80
2022-11-05T09:39:01.414Z,6.43
2022-11-05T09:41:37.674Z,6.20
2022-11-05T09:44:14.404Z,5.73
2022-11-05T09:46:44.440Z,6.23
2022-11-05T09:49:21.102Z,6.37
2022-11-05T09:51:48.627Z,6.47
2022-11-05T09:54:16.924Z,8.97
2022-11-05T09:56:44.497Z,7.93
2022-11-05T09:59:20.541Z,7.47
2022-11-05T10:01:48.307Z,7.63
2022-11-05T10:04:15.738Z,7.87
2022-11-05T10:06:44.054Z,7.80
2022-11-05T10:09:20.565Z,8.53
2022-11-05T10:11:50.943Z,8.47
2022-11-05T10:14:39.710Z,8.90
2022-11-05T10:17:21.968Z,9.83
2022-11-05T10:19:52.253Z,9.83
2022-11-05T10:22:20.622Z,9.67
2022-11-05T10:24:48.074Z,9.53
2022-11-05T10:27:33.443Z,8.13
2022-11-05T10:30:00.985Z,8.93
2022-11-05T10:32:32.172Z,9.37
2022-11-05T10:34:59.729Z,9.70
2022-11-05T10:37:27.260Z,9.10
2022-11-05T10:39:54.803Z,9.97
2022-11-05T10:42:33.874Z,9.97
2022-11-05T10:45:06.895Z,10.83
2022-11-05T10:47:37.443Z,10.03
2022-11-05T10:50:05.785Z,11.93
2022-11-05T10:52:35.783Z,11.10
2022-11-05T10:55:03.340Z,11.20
2022-11-05T10:57:36.587Z,9.97
2022-11-05T11:00:16.450Z,10.23
2022-11-05T11:02:47.007Z,10.60
2022-11-05T11:05:20.658Z,9.83
2022-11-05T11:07:57.684Z,10.03
2022-11-05T11:10:25.220Z,9.20
2022-11-05T11:12:52.755Z,8.40
2022-11-05T11:15:21.092Z,8.53
2022-11-05T11:17:48.636Z,9.33
2022-11-05T11:20:25.129Z,10.40
2022-11-05T11:23:04.904Z,9.10
2022-11-05T11:25:51.193Z,8.17
2022-11-05T11:28:24.222Z,8.40
2022-11-05T11:30:51.769Z,8.00
2022-11-05T11:33:19.303Z,8.40
2022-11-05T11:35:46.905Z,8.53
2022-11-05T11:38:14.423Z,9.87
2022-11-05T11:40:42.744Z,10.60
2022-11-05T11:43:16.344Z,9.50
2022-11-05T11:45:49.957Z,8.50
2022-11-05T11:48:17.521Z,9.00
2022-11-05T11:50:45.106Z,8.90
2022-11-05T11:53:21.360Z,8.63
2022-11-05T11:55:57.627Z,10.38
2022-11-05T11:58:25.182Z,9.47
2022-11-05T12:00:55.771Z,7.00
2022-11-05T12:03:35.366Z,9.90
2022-11-05T12:06:05.342Z,9.03
2022-11-05T12:08:45.387Z,8.00
2022-11-05T12:11:12.985Z,8.17
2022-11-05T12:13:58.892Z,7.70
2022-11-05T12:16:31.973Z,7.13
2022-11-05T12:19:23.943Z,6.87
2022-11-05T12:22:06.775Z,7.20
2022-11-05T12:24:43.336Z,7.70
2022-11-05T12:27:38.004Z,6.67
2022-11-05T12:30:09.016Z,7.47
2022-11-05T12:33:12.823Z,6.93
2022-11-05T12:36:05.455Z,7.90
2022-11-05T12:38:51.294Z,7.97
2022-11-05T12:41:34.384Z,8.60
2022-11-05T12:44:10.724Z,7.47
2022-11-05T12:46:56.336Z,7.60
2022-11-05T12:49:51.054Z,7.97
2022-11-05T12:52:34.305Z,9.40
2022-11-05T12:55:10.268Z,9.80
2022-11-05T12:57:37.798Z,8.03
2022-11-05T13:00:14.687Z,8.60
2022-11-05T13:03:06.276Z,8.87
2022-11-05T13:05:39.949Z,8.63
2022-11-05T13:08:10.211Z,8.80
2022-11-05T13:10:43.320Z,9.47
2022-11-05T13:13:13.997Z,11.07
2022-11-05T13:15:43.650Z,11.47
2022-11-05T13:18:14.927Z,10.40
2022-11-05T13:20:42.502Z,9.30
2022-11-05T13:23:40.194Z,9.07
2022-11-05T13:26:31.665Z,9.27
2022-11-05T13:29:14.011Z,10.40
2022-11-05T13:31:41.605Z,9.60
2022-11-05T13:34:12.497Z,10.20
2022-11-05T13:37:07.039Z,9.07
2022-11-05T13:39:47.339Z,8.63
2022-11-05T13:42:23.628Z,9.83
2022-11-05T13:45:00.150Z,10.88
2022-11-05T13:47:34.304Z,9.70
2022-11-05T13:50:22.423Z,9.47
2022-11-05T13:53:26.325Z,12.82
2022-11-05T13:56:02.336Z,11.13
2022-11-05T13:58:38.455Z,8.57
2022-11-05T14:01:24.171Z,8.60
2022-11-05T14:03:53.247Z,7.93
2022-11-05T14:06:23.469Z,9.07
2022-11-05T14:08:51.004Z,8.10
2022-11-05T14:11:24.237Z,8.60
2022-11-05T14:13:51.780Z,9.60
2022-11-05T14:16:19.345Z,10.13
2022-11-05T14:18:56.380Z,8.83
2022-11-05T14:21:26.904Z,9.75
2022-11-05T14:23:55.203Z,7.17
2022-11-05T14:26:22.795Z,7.87
2022-11-05T14:28:59.270Z,7.47
2022-11-05T14:31:54.260Z,7.23
2022-11-05T14:34:09.190Z,6.67
2022-11-05T14:36:39.439Z,8.02
2022-11-05T14:39:12.802Z,8.07
2022-11-05T14:42:01.663Z,7.23
2022-11-05T14:44:29.185Z,7.00
2022-11-05T14:46:59.946Z,6.87
2022-11-05T14:49:27.534Z,7.00
2022-11-05T14:51:55.063Z,6.80
2022-11-05T14:54:22.588Z,6.70
2022-11-05T14:56:56.248Z,7.40
2022-11-05T14:59:29.351Z,6.97
2022-11-05T15:02:02.776Z,6.17
2022-11-05T15:04:38.515Z,6.30
2022-11-05T15:07:06.059Z,7.50
2022-11-05T15:09:34.677Z,7.27
2022-11-05T15:12:02.972Z,5.90
2022-11-05T15:14:31.285Z,6.80
2022-11-05T15:16:58.859Z,7.07
2022-11-05T15:19:29.100Z,7.63
2022-11-05T15:21:56.658Z,6.97
2022-11-05T15:24:25.206Z,6.77
2022-11-05T15:26:58.924Z,6.07
2022-11-05T15:29:26.467Z,5.93
2022-11-05T15:31:54.122Z,5.47
2022-11-05T15:34:24.133Z,6.07
2022-11-05T15:36:57.070Z,6.10
2022-11-05T15:39:30.710Z,5.23
2022-11-05T15:42:00.994Z,5.07
2022-11-05T15:44:28.524Z,5.60
2022-11-05T15:47:05.414Z,6.60
2022-11-05T15:49:32.967Z,5.27
2022-11-05T15:52:00.682Z,5.47
2022-11-05T15:54:30.905Z,4.37
2022-11-05T15:56:55.758Z,4.90
2022-11-05T15:59:23.278Z,4.97
2022-11-05T16:01:59.527Z,4.93
2022-11-05T16:04:27.000Z,5.20
2022-11-05T16:06:54.546Z,4.63
2022-11-05T16:09:31.451Z,5.03
2022-11-05T16:12:20.192Z,5.23
2022-11-05T16:15:09.466Z,4.73
2022-11-05T16:17:40.012Z,4.90
2022-11-05T16:20:22.749Z,4.27
2022-11-05T16:22:50.302Z,4.73
2022-11-05T16:25:23.535Z,5.68
2022-11-05T16:27:51.997Z,6.95
2022-11-05T16:30:20.339Z,5.37
2022-11-05T16:32:47.842Z,5.70
2022-11-05T16:35:24.967Z,5.57
2022-11-05T16:37:52.699Z,6.07
2022-11-05T16:40:23.486Z,5.93
2022-11-05T16:42:51.367Z,6.33
2022-11-05T16:45:18.877Z,6.53
2022-11-05T16:47:46.430Z,7.07
2022-11-05T16:50:19.470Z,6.73
2022-11-05T16:52:46.995Z,6.97
2022-11-05T16:55:14.540Z,8.07
2022-11-05T16:57:42.128Z,6.67
2022-11-05T17:00:09.693Z,6.60
2022-11-05T17:02:37.328Z,6.93
2022-11-05T17:05:04.839Z,7.63
2022-11-05T17:07:37.194Z,7.53
2022-11-05T17:10:00.665Z,7.07
2022-11-05T17:12:28.250Z,6.93
2022-11-05T17:14:56.558Z,6.60
2022-11-05T17:17:24.093Z,6.30
2022-11-05T17:19:51.679Z,6.50
2022-11-05T17:22:19.211Z,5.70
2022-11-05T17:24:47.503Z,5.93
2022-11-05T17:27:15.093Z,6.23
2022-11-05T17:29:42.646Z,6.57
2022-11-05T17:32:10.201Z,6.83
2022-11-05T17:34:38.139Z,6.93
2022-11-05T17:37:05.688Z,7.07
2022-11-05T17:39:33.231Z,7.70
2022-11-05T17:42:01.563Z,8.03
2022-11-05T17:44:29.109Z,7.33
2022-11-05T17:46:56.640Z,7.57
2022-11-05T17:49:24.991Z,7.00
2022-11-05T17:51:52.531Z,7.67
2022-11-05T17:54:20.051Z,8.07
2022-11-05T17:56:47.609Z,7.97
2022-11-05T17:59:15.144Z,7.53
2022-11-05T18:01:43.771Z,8.63
2022-11-05T18:04:11.021Z,6.90
2022-11-05T18:06:38.557Z,5.97
2022-11-05T18:09:06.094Z,5.93
2022-11-05T18:11:33.675Z,5.43
2022-11-05T18:14:01.210Z,5.50
2022-11-05T18:16:29.640Z,5.33
2022-11-05T18:18:57.238Z,5.67
2022-11-05T18:21:24.778Z,7.33
2022-11-05T18:23:52.300Z,8.80
2022-11-05T18:26:19.915Z,8.20
2022-11-05T18:28:47.467Z,7.73
2022-11-05T18:31:18.105Z,6.37
2022-11-05T18:33:42.574Z,5.87
2022-11-05T18:36:10.127Z,5.07
2022-11-05T18:38:37.664Z,6.57
2022-11-05T18:41:08.283Z,5.00
2022-11-05T18:43:35.808Z,4.90
2022-11-05T18:46:04.129Z,4.77
2022-11-05T18:48:31.711Z,5.10
2022-11-05T18:51:02.066Z,4.23
2022-11-05T18:53:26.800Z,4.00
2022-11-05T18:55:54.625Z,5.10
2022-11-05T18:58:22.972Z,4.97
2022-11-05T19:00:50.516Z,6.80
2022-11-05T19:03:18.101Z,8.07
2022-11-05T19:05:45.636Z,4.80
2022-11-05T19:08:14.271Z,6.20
2022-11-05T19:10:41.488Z,4.60
2022-11-05T19:13:09.010Z,4.50
2022-11-05T19:15:36.546Z,5.15
2022-11-05T19:18:04.897Z,5.03
2022-11-05T19:20:37.478Z,5.00
2022-11-05T19:22:59.969Z,5.95
2022-11-05T19:25:27.542Z,5.33
2022-11-05T19:27:55.069Z,5.20
2022-11-05T19:30:22.612Z,3.90
2022-11-05T19:32:50.955Z,4.07
2022-11-05T19:35:18.500Z,4.70
2022-11-05T19:37:46.025Z,4.30
2022-11-05T19:40:13.603Z,4.00
2022-11-05T19:42:41.118Z,4.53
2022-11-05T19:45:38.144Z,5.13
2022-11-05T19:47:36.402Z,4.17
2022-11-05T19:50:03.976Z,4.63
2022-11-05T19:52:31.497Z,5.20
2022-11-05T19:55:00.563Z,4.57
2022-11-05T19:57:28.865Z,4.57
2022-11-05T19:59:56.393Z,4.33
2022-11-05T20:02:24.819Z,3.87
2022-11-05T20:04:52.240Z,4.87
2022-11-05T20:07:20.551Z,3.63
2022-11-05T20:09:48.136Z,4.40
2022-11-05T20:12:15.673Z,3.83
2022-11-05T20:14:43.207Z,5.18
2022-11-05T20:17:10.789Z,4.60
2022-11-05T20:19:38.335Z,3.67
2022-11-05T20:22:05.856Z,4.17
2022-11-05T20:24:34.206Z,4.10
2022-11-05T20:27:01.741Z,3.33
2022-11-05T20:29:34.993Z,4.72
2022-11-05T20:31:56.902Z,4.73
2022-11-05T20:34:24.436Z,4.30
2022-11-05T20:36:51.993Z,4.07
2022-11-05T20:39:19.575Z,4.53
2022-11-05T20:41:47.121Z,3.63
2022-11-05T20:44:14.675Z,4.40
2022-11-05T20:46:42.251Z,4.13
2022-11-05T20:49:09.795Z,3.93
2022-11-05T20:51:37.329Z,4.43
2022-11-05T20:54:04.894Z,4.93
2022-11-05T20:56:32.428Z,4.07
2022-11-05T20:58:59.962Z,4.82
2022-11-05T21:01:28.387Z,4.23
2022-11-05T21:03:55.830Z,4.30
2022-11-05T21:06:23.362Z,4.53
2022-11-05T21:08:51.783Z,4.27
2022-11-05T21:11:20.067Z,4.40
2022-11-05T21:13:47.578Z,4.10
2022-11-05T21:16:18.215Z,4.37
2022-11-05T21:18:43.448Z,4.40
2022-11-05T21:21:11.043Z,3.47
2022-11-05T21:23:38.586Z,4.13
2022-11-05T21:26:06.126Z,3.93
2022-11-05T21:28:33.646Z,3.67
2022-11-05T21:31:01.972Z,3.40
2022-11-05T21:33:29.506Z,3.47
2022-11-05T21:35:57.031Z,4.40
2022-11-05T21:38:25.385Z,3.30
2022-11-05T21:40:52.907Z,3.70
2022-11-05T21:43:20.447Z,3.67
2022-11-05T21:45:49.062Z,3.33
2022-11-05T21:48:17.325Z,4.17
2022-11-05T21:51:03.030Z,2.90
2022-11-05T21:53:48.811Z,3.10
2022-11-05T21:56:37.211Z,3.40
2022-11-05T21:59:23.591Z,3.03
2022-11-05T22:01:51.302Z,3.00
2022-11-05T22:04:19.453Z,2.97
2022-11-05T22:06:47.737Z,2.83
2022-11-05T22:09:15.301Z,3.83
2022-11-05T22:11:42.816Z,3.23
2022-11-05T22:14:10.343Z,3.60
2022-11-05T22:16:38.183Z,3.57
2022-11-05T22:19:05.712Z,3.47
2022-11-05T22:21:33.246Z,4.67
2022-11-05T22:24:00.998Z,4.63
2022-11-05T22:26:28.515Z,4.60
2022-11-05T22:28:56.062Z,3.53
2022-11-05T22:31:24.386Z,3.13
2022-11-05T22:33:51.929Z,3.50
2022-11-05T22:36:19.476Z,3.43
2022-11-05T22:38:47.070Z,3.97
2022-11-05T22:41:14.586Z,4.10
2022-11-05T22:43:42.890Z,4.03
2022-11-05T22:46:10.453Z,4.80
2022-11-05T22:48:37.985Z,5.17
2022-11-05T22:51:05.510Z,4.63
2022-11-05T22:53:33.103Z,3.50
2022-11-05T22:56:00.664Z,4.05
2022-11-05T22:58:28.204Z,4.50
2022-11-05T23:00:56.547Z,3.50
2022-11-05T23:03:26.506Z,3.57
2022-11-05T23:05:57.469Z,4.30
2022-11-05T23:08:43.091Z,4.23
2022-11-05T23:11:28.764Z,3.97
2022-11-05T23:13:56.378Z,4.83
2022-11-05T23:16:42.202Z,5.43
2022-11-05T23:19:27.702Z,3.67
2022-11-05T23:22:13.423Z,3.97
2022-11-05T23:24:41.778Z,2.90
2022-11-05T23:27:09.312Z,3.53
2022-11-05T23:29:36.834Z,3.30
2022-11-05T23:32:22.448Z,2.93
2022-11-05T23:34:50.053Z,2.97
2022-11-05T23:37:35.722Z,2.67
2022-11-05T23:40:03.270Z,2.97
2022-11-05T23:42:48.997Z,2.70
2022-11-05T23:45:34.790Z,4.37
2022-11-05T23:48:20.323Z,3.37
2022-11-05T23:50:50.450Z,4.23
2022-11-05T23:53:17.985Z,5.57
2022-11-05T23:55:45.559Z,4.27
2022-11-05T23:58:13.358Z,4.27
